sensor_id;sensor_type;location;lat;lon;timestamp;temperature;humidity
2062;DHT22;11070;51.336;12.340;2022-12-29T00:02:19;8.70;99.90
2062;DHT22;11070;51.336;12.340;2022-12-29T00:04:45;8.70;99.90
2062;DHT22;11070;51.336;12.340;2022-12-29T00:07:10;8.80;78.20
2062;DHT22;11070;51.336;12.340;2022-12-29T00:09:36;8.80;87.40
2062;DHT22;11070;51.336;12.340;2022-12-29T00:12:03;8.80;62.50
2062;DHT22;11070;51.336;12.340;2022-12-29T00:14:29;8.80;42.60
2062;DHT22;11070;51.336;12.340;2022-12-29T00:17:14;8.90;25.70
2062;DHT22;11070;51.336;12.340;2022-12-29T00:19:39;8.90;1.00
2062;DHT22;11070;51.336;12.340;2022-12-29T00:22:24;8.90;1.00
2062;DHT22;11070;51.336;12.340;2022-12-29T00:25:10;9.00;1.00
2062;DHT22;11070;51.336;12.340;2022-12-29T00:27:55;9.00;1.00
2062;DHT22;11070;51.336;12.340;2022-12-29T00:30:40;9.00;1.00
2062;DHT22;11070;51.336;12.340;2022-12-29T00:33:32;9.00;1.00
2062;DHT22;11070;51.336;12.340;2022-12-29T00:39:07;9.10;1.00
2062;DHT22;11070;51.336;12.340;2022-12-29T00:41:51;9.10;1.00
2062;DHT22;11070;51.336;12.340;2022-12-29T00:44:36;9.20;1.00
2062;DHT22;11070;51.336;12.340;2022-12-29T00:47:02;9.20;1.00
2062;DHT22;11070;51.336;12.340;2022-12-29T00:49:30;9.20;1.00
2062;DHT22;11070;51.336;12.340;2022-12-29T00:54:27;9.30;1.00
2062;DHT22;11070;51.336;12.340;2022-12-29T00:56:54;9.30;1.00
2062;DHT22;11070;51.336;12.340;2022-12-29T00:59:20;9.30;1.00
2062;DHT22;11070;51.336;12.340;2022-12-29T01:01:47;9.40;1.00
2062;DHT22;11070;51.336;12.340;2022-12-29T01:04:12;9.40;1.00
2062;DHT22;11070;51.336;12.340;2022-12-29T01:06:39;9.40;1.00
2062;DHT22;11070;51.336;12.340;2022-12-29T01:09:06;9.40;1.00
2062;DHT22;11070;51.336;12.340;2022-12-29T01:11:51;9.50;1.00
2062;DHT22;11070;51.336;12.340;2022-12-29T01:14:18;9.50;1.00
2062;DHT22;11070;51.336;12.340;2022-12-29T01:16:44;9.50;1.00
2062;DHT22;11070;51.336;12.340;2022-12-29T01:19:11;9.50;1.00
2062;DHT22;11070;51.336;12.340;2022-12-29T01:21:37;9.50;1.00
2062;DHT22;11070;51.336;12.340;2022-12-29T01:24:03;9.50;1.00
2062;DHT22;11070;51.336;12.340;2022-12-29T01:26:29;9.60;1.00
2062;DHT22;11070;51.336;12.340;2022-12-29T01:28:54;9.60;1.00
2062;DHT22;11070;51.336;12.340;2022-12-29T01:31:21;9.50;1.30
2062;DHT22;11070;51.336;12.340;2022-12-29T01:33:47;9.50;8.70
2062;DHT22;11070;51.336;12.340;2022-12-29T01:36:15;9.50;27.20
2062;DHT22;11070;51.336;12.340;2022-12-29T01:38:42;9.50;47.90
2062;DHT22;11070;51.336;12.340;2022-12-29T01:41:09;9.50;99.90
2062;DHT22;11070;51.336;12.340;2022-12-29T01:46:34;9.40;99.90
2062;DHT22;11070;51.336;12.340;2022-12-29T01:49:12;9.40;99.90
2062;DHT22;11070;51.336;12.340;2022-12-29T01:51:45;9.40;99.90
2062;DHT22;11070;51.336;12.340;2022-12-29T01:54:19;9.40;99.90
2062;DHT22;11070;51.336;12.340;2022-12-29T01:56:46;9.40;99.90
2062;DHT22;11070;51.336;12.340;2022-12-29T01:59:16;9.40;99.90
2062;DHT22;11070;51.336;12.340;2022-12-29T02:01:44;9.50;99.90
2062;DHT22;11070;51.336;12.340;2022-12-29T02:04:11;9.50;99.90
2062;DHT22;11070;51.336;12.340;2022-12-29T02:06:51;9.50;99.90
2062;DHT22;11070;51.336;12.340;2022-12-29T02:09:19;9.50;99.90
2062;DHT22;11070;51.336;12.340;2022-12-29T02:11:45;9.60;99.90
2062;DHT22;11070;51.336;12.340;2022-12-29T02:14:13;9.60;99.90
2062;DHT22;11070;51.336;12.340;2022-12-29T02:41:23;9.90;99.90
2062;DHT22;11070;51.336;12.340;2022-12-29T02:46:26;9.90;99.90
2062;DHT22;11070;51.336;12.340;2022-12-29T02:51:39;10.00;99.90
2062;DHT22;11070;51.336;12.340;2022-12-29T02:54:05;10.00;99.90
2062;DHT22;11070;51.336;12.340;2022-12-29T02:56:50;9.90;99.90
2062;DHT22;11070;51.336;12.340;2022-12-29T02:59:16;10.00;99.90
2062;DHT22;11070;51.336;12.340;2022-12-29T03:02:16;10.00;99.90
2062;DHT22;11070;51.336;12.340;2022-12-29T03:09:57;10.00;99.90
2062;DHT22;11070;51.336;12.340;2022-12-29T03:12:31;10.00;99.90
2062;DHT22;11070;51.336;12.340;2022-12-29T03:15:27;10.00;99.90
2062;DHT22;11070;51.336;12.340;2022-12-29T03:18:19;10.10;99.90
2062;DHT22;11070;51.336;12.340;2022-12-29T03:21:00;10.10;99.90
2062;DHT22;11070;51.336;12.340;2022-12-29T03:23:28;10.10;99.90
2062;DHT22;11070;51.336;12.340;2022-12-29T03:25:56;10.20;99.90
2062;DHT22;11070;51.336;12.340;2022-12-29T03:28:35;10.10;99.90
2062;DHT22;11070;51.336;12.340;2022-12-29T03:31:04;10.20;99.90
2062;DHT22;11070;51.336;12.340;2022-12-29T03:33:30;10.20;99.90
2062;DHT22;11070;51.336;12.340;2022-12-29T03:36:00;10.20;99.90
2062;DHT22;11070;51.336;12.340;2022-12-29T03:38:38;10.20;99.90
2062;DHT22;11070;51.336;12.340;2022-12-29T03:41:11;10.10;99.90
2062;DHT22;11070;51.336;12.340;2022-12-29T03:43:37;10.20;99.90
2062;DHT22;11070;51.336;12.340;2022-12-29T03:46:03;10.20;99.90
2062;DHT22;11070;51.336;12.340;2022-12-29T03:48:29;10.20;99.90
2062;DHT22;11070;51.336;12.340;2022-12-29T03:50:54;10.20;99.90
2062;DHT22;11070;51.336;12.340;2022-12-29T03:53:20;10.20;99.90
2062;DHT22;11070;51.336;12.340;2022-12-29T03:55:46;10.30;99.90
2062;DHT22;11070;51.336;12.340;2022-12-29T03:58:12;10.20;99.90
2062;DHT22;11070;51.336;12.340;2022-12-29T04:00:37;10.20;99.90
2062;DHT22;11070;51.336;12.340;2022-12-29T04:03:03;10.20;99.90
2062;DHT22;11070;51.336;12.340;2022-12-29T04:05:29;10.20;99.90
2062;DHT22;11070;51.336;12.340;2022-12-29T04:07:56;10.10;99.90
2062;DHT22;11070;51.336;12.340;2022-12-29T04:10:25;10.20;99.90
2062;DHT22;11070;51.336;12.340;2022-12-29T04:12:50;10.20;99.90
2062;DHT22;11070;51.336;12.340;2022-12-29T04:15:16;10.10;99.90
2062;DHT22;11070;51.336;12.340;2022-12-29T04:17:42;10.10;99.90
2062;DHT22;11070;51.336;12.340;2022-12-29T04:20:08;10.10;99.90
2062;DHT22;11070;51.336;12.340;2022-12-29T04:23:02;10.10;99.90
2062;DHT22;11070;51.336;12.340;2022-12-29T04:25:30;10.10;1.00
2062;DHT22;11070;51.336;12.340;2022-12-29T04:27:56;10.10;1.00
2062;DHT22;11070;51.336;12.340;2022-12-29T04:30:22;10.20;1.00
2062;DHT22;11070;51.336;12.340;2022-12-29T04:32:48;10.20;1.00
2062;DHT22;11070;51.336;12.340;2022-12-29T04:35:14;10.20;1.00
2062;DHT22;11070;51.336;12.340;2022-12-29T04:37:40;10.30;1.00
2062;DHT22;11070;51.336;12.340;2022-12-29T04:40:06;10.30;1.00
2062;DHT22;11070;51.336;12.340;2022-12-29T04:42:32;10.30;1.00
2062;DHT22;11070;51.336;12.340;2022-12-29T04:44:57;10.30;1.00
2062;DHT22;11070;51.336;12.340;2022-12-29T04:47:23;10.30;1.00
2062;DHT22;11070;51.336;12.340;2022-12-29T04:49:49;10.30;1.00
2062;DHT22;11070;51.336;12.340;2022-12-29T04:52:15;10.30;1.00
2062;DHT22;11070;51.336;12.340;2022-12-29T04:54:40;10.30;1.00
2062;DHT22;11070;51.336;12.340;2022-12-29T04:57:06;10.30;1.00
2062;DHT22;11070;51.336;12.340;2022-12-29T04:59:32;10.30;1.00
2062;DHT22;11070;51.336;12.340;2022-12-29T05:01:58;10.30;1.00
2062;DHT22;11070;51.336;12.340;2022-12-29T05:04:23;10.40;1.00
2062;DHT22;11070;51.336;12.340;2022-12-29T05:06:49;10.40;1.00
2062;DHT22;11070;51.336;12.340;2022-12-29T05:09:15;10.40;40.90
2062;DHT22;11070;51.336;12.340;2022-12-29T05:11:40;10.30;99.90
2062;DHT22;11070;51.336;12.340;2022-12-29T05:14:06;10.30;99.90
2062;DHT22;11070;51.336;12.340;2022-12-29T05:16:31;10.30;99.90
2062;DHT22;11070;51.336;12.340;2022-12-29T05:18:57;10.40;99.90
2062;DHT22;11070;51.336;12.340;2022-12-29T05:21:23;10.30;99.90
2062;DHT22;11070;51.336;12.340;2022-12-29T05:23:49;10.30;99.90
2062;DHT22;11070;51.336;12.340;2022-12-29T05:26:15;10.30;1.00
2062;DHT22;11070;51.336;12.340;2022-12-29T05:28:40;10.20;1.00
2062;DHT22;11070;51.336;12.340;2022-12-29T05:31:06;10.10;1.00
2062;DHT22;11070;51.336;12.340;2022-12-29T05:33:32;10.10;60.10
2062;DHT22;11070;51.336;12.340;2022-12-29T05:36:07;10.10;42.90
2062;DHT22;11070;51.336;12.340;2022-12-29T05:38:34;10.20;38.00
2062;DHT22;11070;51.336;12.340;2022-12-29T05:41:00;10.20;16.30
2062;DHT22;11070;51.336;12.340;2022-12-29T05:43:26;10.20;49.10
2062;DHT22;11070;51.336;12.340;2022-12-29T05:45:52;10.10;99.90
2062;DHT22;11070;51.336;12.340;2022-12-29T05:48:18;10.10;99.90
2062;DHT22;11070;51.336;12.340;2022-12-29T05:50:48;10.20;1.00
2062;DHT22;11070;51.336;12.340;2022-12-29T05:53:14;10.20;1.00
2062;DHT22;11070;51.336;12.340;2022-12-29T05:55:40;10.20;1.00
2062;DHT22;11070;51.336;12.340;2022-12-29T05:58:05;10.20;29.80
2062;DHT22;11070;51.336;12.340;2022-12-29T06:00:31;10.20;17.30
2062;DHT22;11070;51.336;12.340;2022-12-29T06:02:57;10.20;1.00
2062;DHT22;11070;51.336;12.340;2022-12-29T06:05:23;10.20;1.00
2062;DHT22;11070;51.336;12.340;2022-12-29T06:07:48;10.20;1.00
2062;DHT22;11070;51.336;12.340;2022-12-29T06:10:14;10.20;1.00
2062;DHT22;11070;51.336;12.340;2022-12-29T06:12:40;10.20;1.00
2062;DHT22;11070;51.336;12.340;2022-12-29T06:15:06;10.20;1.00
2062;DHT22;11070;51.336;12.340;2022-12-29T06:17:32;10.20;1.00
2062;DHT22;11070;51.336;12.340;2022-12-29T06:19:57;10.20;1.00
2062;DHT22;11070;51.336;12.340;2022-12-29T06:22:24;10.20;1.00
2062;DHT22;11070;51.336;12.340;2022-12-29T06:24:50;10.20;27.90
2062;DHT22;11070;51.336;12.340;2022-12-29T06:27:15;10.20;59.40
2062;DHT22;11070;51.336;12.340;2022-12-29T06:29:41;10.20;1.00
2062;DHT22;11070;51.336;12.340;2022-12-29T06:32:08;10.20;1.00
2062;DHT22;11070;51.336;12.340;2022-12-29T06:34:35;10.20;1.00
2062;DHT22;11070;51.336;12.340;2022-12-29T06:37:00;10.20;1.00
2062;DHT22;11070;51.336;12.340;2022-12-29T06:39:27;10.20;1.00
2062;DHT22;11070;51.336;12.340;2022-12-29T06:41:53;10.10;67.40
2062;DHT22;11070;51.336;12.340;2022-12-29T06:44:23;10.10;97.10
2062;DHT22;11070;51.336;12.340;2022-12-29T06:46:49;10.20;66.70
2062;DHT22;11070;51.336;12.340;2022-12-29T06:49:15;10.20;93.00
2062;DHT22;11070;51.336;12.340;2022-12-29T06:51:41;10.10;99.90
2062;DHT22;11070;51.336;12.340;2022-12-29T06:54:07;10.10;99.90
2062;DHT22;11070;51.336;12.340;2022-12-29T06:56:32;10.10;99.90
2062;DHT22;11070;51.336;12.340;2022-12-29T06:58:58;10.00;1.00
2062;DHT22;11070;51.336;12.340;2022-12-29T07:01:27;10.00;1.00
2062;DHT22;11070;51.336;12.340;2022-12-29T07:03:53;10.00;68.90
2062;DHT22;11070;51.336;12.340;2022-12-29T07:06:19;9.90;99.90
2062;DHT22;11070;51.336;12.340;2022-12-29T07:08:46;9.90;99.90
2062;DHT22;11070;51.336;12.340;2022-12-29T07:11:11;10.00;99.90
2062;DHT22;11070;51.336;12.340;2022-12-29T07:13:37;9.90;99.90
2062;DHT22;11070;51.336;12.340;2022-12-29T07:16:08;9.90;1.00
2062;DHT22;11070;51.336;12.340;2022-12-29T07:18:34;9.90;1.00
2062;DHT22;11070;51.336;12.340;2022-12-29T07:21:00;9.90;1.00
2062;DHT22;11070;51.336;12.340;2022-12-29T07:23:26;9.90;1.00
2062;DHT22;11070;51.336;12.340;2022-12-29T07:26:06;9.90;1.00
2062;DHT22;11070;51.336;12.340;2022-12-29T07:28:33;9.90;1.00
2062;DHT22;11070;51.336;12.340;2022-12-29T07:30:59;9.90;99.90
2062;DHT22;11070;51.336;12.340;2022-12-29T07:33:28;9.90;99.90
2062;DHT22;11070;51.336;12.340;2022-12-29T07:35:54;9.90;99.90
2062;DHT22;11070;51.336;12.340;2022-12-29T07:38:19;9.90;1.00
2062;DHT22;11070;51.336;12.340;2022-12-29T07:40:45;9.90;1.00
2062;DHT22;11070;51.336;12.340;2022-12-29T07:43:11;10.00;1.00
2062;DHT22;11070;51.336;12.340;2022-12-29T07:45:37;10.00;1.00
2062;DHT22;11070;51.336;12.340;2022-12-29T07:48:04;10.00;99.90
2062;DHT22;11070;51.336;12.340;2022-12-29T07:50:33;10.10;1.00
2062;DHT22;11070;51.336;12.340;2022-12-29T07:52:59;10.10;1.00
2062;DHT22;11070;51.336;12.340;2022-12-29T07:55:25;10.10;1.00
2062;DHT22;11070;51.336;12.340;2022-12-29T07:57:53;10.10;1.00
2062;DHT22;11070;51.336;12.340;2022-12-29T08:00:20;10.20;99.90
2062;DHT22;11070;51.336;12.340;2022-12-29T08:02:46;10.20;99.90
2062;DHT22;11070;51.336;12.340;2022-12-29T08:05:12;10.20;99.90
2062;DHT22;11070;51.336;12.340;2022-12-29T08:07:38;10.20;99.90
2062;DHT22;11070;51.336;12.340;2022-12-29T08:10:04;10.30;99.90
2062;DHT22;11070;51.336;12.340;2022-12-29T08:12:30;10.30;1.00
2062;DHT22;11070;51.336;12.340;2022-12-29T08:14:56;10.40;1.00
2062;DHT22;11070;51.336;12.340;2022-12-29T08:17:22;10.40;1.00
2062;DHT22;11070;51.336;12.340;2022-12-29T08:19:47;10.40;1.00
2062;DHT22;11070;51.336;12.340;2022-12-29T08:22:14;10.40;1.00
2062;DHT22;11070;51.336;12.340;2022-12-29T08:24:40;10.40;1.00
2062;DHT22;11070;51.336;12.340;2022-12-29T08:27:06;10.40;1.00
2062;DHT22;11070;51.336;12.340;2022-12-29T08:29:32;10.50;1.00
2062;DHT22;11070;51.336;12.340;2022-12-29T08:31:57;10.50;99.90
2062;DHT22;11070;51.336;12.340;2022-12-29T08:34:23;10.50;1.00
2062;DHT22;11070;51.336;12.340;2022-12-29T08:36:49;10.50;99.90
2062;DHT22;11070;51.336;12.340;2022-12-29T08:39:15;10.50;99.90
2062;DHT22;11070;51.336;12.340;2022-12-29T08:41:41;10.50;99.90
2062;DHT22;11070;51.336;12.340;2022-12-29T08:44:08;10.50;99.90
2062;DHT22;11070;51.336;12.340;2022-12-29T08:46:34;10.50;99.90
2062;DHT22;11070;51.336;12.340;2022-12-29T08:49:00;10.60;42.50
2062;DHT22;11070;51.336;12.340;2022-12-29T08:51:27;10.60;1.00
2062;DHT22;11070;51.336;12.340;2022-12-29T08:53:53;10.70;1.00
2062;DHT22;11070;51.336;12.340;2022-12-29T08:56:18;10.80;1.00
2062;DHT22;11070;51.336;12.340;2022-12-29T08:58:44;10.80;99.90
2062;DHT22;11070;51.336;12.340;2022-12-29T09:01:10;11.00;99.90
2062;DHT22;11070;51.336;12.340;2022-12-29T09:03:37;11.60;99.90
2062;DHT22;11070;51.336;12.340;2022-12-29T09:06:03;12.20;1.00
2062;DHT22;11070;51.336;12.340;2022-12-29T09:08:29;12.90;99.90
2062;DHT22;11070;51.336;12.340;2022-12-29T09:11:04;13.60;1.00
2062;DHT22;11070;51.336;12.340;2022-12-29T09:13:31;14.00;1.00
2062;DHT22;11070;51.336;12.340;2022-12-29T09:16:00;15.70;1.00
2062;DHT22;11070;51.336;12.340;2022-12-29T09:18:26;15.70;1.00
2062;DHT22;11070;51.336;12.340;2022-12-29T09:20:59;15.50;1.00
2062;DHT22;11070;51.336;12.340;2022-12-29T09:23:26;16.40;1.00
2062;DHT22;11070;51.336;12.340;2022-12-29T09:25:54;17.10;1.00
2062;DHT22;11070;51.336;12.340;2022-12-29T09:28:20;16.70;1.00
2062;DHT22;11070;51.336;12.340;2022-12-29T09:30:46;16.80;1.00
2062;DHT22;11070;51.336;12.340;2022-12-29T09:33:12;16.40;1.00
2062;DHT22;11070;51.336;12.340;2022-12-29T09:35:44;16.50;1.00
2062;DHT22;11070;51.336;12.340;2022-12-29T09:38:10;16.30;1.00
2062;DHT22;11070;51.336;12.340;2022-12-29T09:40:37;16.40;1.00
2062;DHT22;11070;51.336;12.340;2022-12-29T09:46:18;15.90;1.00
2062;DHT22;11070;51.336;12.340;2022-12-29T09:48:44;15.20;1.00
2062;DHT22;11070;51.336;12.340;2022-12-29T09:51:15;15.10;1.00
2062;DHT22;11070;51.336;12.340;2022-12-29T09:53:49;14.60;1.00
2062;DHT22;11070;51.336;12.340;2022-12-29T09:56:21;14.10;1.00
2062;DHT22;11070;51.336;12.340;2022-12-29T09:58:53;14.10;1.00
2062;DHT22;11070;51.336;12.340;2022-12-29T10:03:54;13.10;1.00
2062;DHT22;11070;51.336;12.340;2022-12-29T10:06:46;13.00;1.00
2062;DHT22;11070;51.336;12.340;2022-12-29T10:14:47;12.50;99.90
2062;DHT22;11070;51.336;12.340;2022-12-29T10:20:10;12.30;99.90
2062;DHT22;11070;51.336;12.340;2022-12-29T10:25:29;12.30;99.90
2062;DHT22;11070;51.336;12.340;2022-12-29T10:28:01;12.20;99.90
2062;DHT22;11070;51.336;12.340;2022-12-29T10:30:29;12.20;99.90
2062;DHT22;11070;51.336;12.340;2022-12-29T10:33:11;12.20;99.90
2062;DHT22;11070;51.336;12.340;2022-12-29T10:35:41;12.20;99.90
2062;DHT22;11070;51.336;12.340;2022-12-29T10:38:44;12.10;99.90
2062;DHT22;11070;51.336;12.340;2022-12-29T10:41:20;12.10;99.90
2062;DHT22;11070;51.336;12.340;2022-12-29T10:43:49;12.20;99.90
2062;DHT22;11070;51.336;12.340;2022-12-29T10:46:20;12.30;99.90
2062;DHT22;11070;51.336;12.340;2022-12-29T10:48:47;12.30;99.90
2062;DHT22;11070;51.336;12.340;2022-12-29T10:51:40;12.30;99.90
2062;DHT22;11070;51.336;12.340;2022-12-29T10:54:20;12.50;73.70
2062;DHT22;11070;51.336;12.340;2022-12-29T10:57:01;12.70;19.20
2062;DHT22;11070;51.336;12.340;2022-12-29T10:59:30;12.80;1.00
2062;DHT22;11070;51.336;12.340;2022-12-29T11:07:20;13.90;1.00
2062;DHT22;11070;51.336;12.340;2022-12-29T11:09:47;15.00;1.00
2062;DHT22;11070;51.336;12.340;2022-12-29T11:14:47;15.40;1.00
2062;DHT22;11070;51.336;12.340;2022-12-29T11:17:17;14.90;1.00
2062;DHT22;11070;51.336;12.340;2022-12-29T11:19:45;14.00;1.00
2062;DHT22;11070;51.336;12.340;2022-12-29T11:22:23;13.90;1.00
2062;DHT22;11070;51.336;12.340;2022-12-29T11:24:52;14.30;1.00
2062;DHT22;11070;51.336;12.340;2022-12-29T11:27:25;14.50;1.00
2062;DHT22;11070;51.336;12.340;2022-12-29T11:29:53;14.70;1.00
2062;DHT22;11070;51.336;12.340;2022-12-29T11:32:23;15.10;1.00
2062;DHT22;11070;51.336;12.340;2022-12-29T11:34:51;15.50;1.00
2062;DHT22;11070;51.336;12.340;2022-12-29T11:37:22;15.70;1.00
2062;DHT22;11070;51.336;12.340;2022-12-29T11:40:04;15.80;1.00
2062;DHT22;11070;51.336;12.340;2022-12-29T11:42:35;15.20;1.00
2062;DHT22;11070;51.336;12.340;2022-12-29T11:47:44;15.50;1.00
2062;DHT22;11070;51.336;12.340;2022-12-29T11:50:23;15.20;1.00
2062;DHT22;11070;51.336;12.340;2022-12-29T11:53:04;14.30;1.00
2062;DHT22;11070;51.336;12.340;2022-12-29T11:55:31;13.80;1.00
2062;DHT22;11070;51.336;12.340;2022-12-29T11:58:00;13.50;1.00
2062;DHT22;11070;51.336;12.340;2022-12-29T12:00:30;13.50;1.00
2062;DHT22;11070;51.336;12.340;2022-12-29T12:03:12;13.40;1.00
2062;DHT22;11070;51.336;12.340;2022-12-29T12:05:58;13.40;1.00
2062;DHT22;11070;51.336;12.340;2022-12-29T12:08:37;13.40;1.00
2062;DHT22;11070;51.336;12.340;2022-12-29T12:11:28;13.50;1.00
2062;DHT22;11070;51.336;12.340;2022-12-29T12:14:26;13.80;1.00
2062;DHT22;11070;51.336;12.340;2022-12-29T12:17:14;14.10;1.00
2062;DHT22;11070;51.336;12.340;2022-12-29T12:20:02;14.90;1.00
2062;DHT22;11070;51.336;12.340;2022-12-29T12:22:41;15.60;1.00
2062;DHT22;11070;51.336;12.340;2022-12-29T12:25:21;15.60;1.00
2062;DHT22;11070;51.336;12.340;2022-12-29T12:28:03;15.60;1.00
2062;DHT22;11070;51.336;12.340;2022-12-29T12:30:40;15.40;1.00
2062;DHT22;11070;51.336;12.340;2022-12-29T12:33:22;14.80;1.00
2062;DHT22;11070;51.336;12.340;2022-12-29T12:36:10;14.70;1.00
2062;DHT22;11070;51.336;12.340;2022-12-29T12:38:54;14.60;1.00
2062;DHT22;11070;51.336;12.340;2022-12-29T12:44:16;14.30;1.00
2062;DHT22;11070;51.336;12.340;2022-12-29T12:49:45;13.70;1.00
2062;DHT22;11070;51.336;12.340;2022-12-29T12:58:17;13.40;1.00
2062;DHT22;11070;51.336;12.340;2022-12-29T13:03:31;13.30;1.00
2062;DHT22;11070;51.336;12.340;2022-12-29T13:12:19;13.20;1.00
2062;DHT22;11070;51.336;12.340;2022-12-29T13:15:26;13.20;1.00
2062;DHT22;11070;51.336;12.340;2022-12-29T13:18:05;13.40;1.00
2062;DHT22;11070;51.336;12.340;2022-12-29T13:36:39;13.20;1.00
2062;DHT22;11070;51.336;12.340;2022-12-29T13:39:37;13.10;1.00
2062;DHT22;11070;51.336;12.340;2022-12-29T13:42:05;13.10;1.00
2062;DHT22;11070;51.336;12.340;2022-12-29T13:44:39;13.10;1.00
2062;DHT22;11070;51.336;12.340;2022-12-29T13:49:44;13.20;1.00
2062;DHT22;11070;51.336;12.340;2022-12-29T13:55:26;13.30;1.00
2062;DHT22;11070;51.336;12.340;2022-12-29T14:01:27;13.00;1.00
2062;DHT22;11070;51.336;12.340;2022-12-29T14:03:52;12.80;1.00
2062;DHT22;11070;51.336;12.340;2022-12-29T14:06:28;12.70;36.80
2062;DHT22;11070;51.336;12.340;2022-12-29T14:08:59;12.60;99.90
2062;DHT22;11070;51.336;12.340;2022-12-29T14:11:34;12.50;99.90
2062;DHT22;11070;51.336;12.340;2022-12-29T14:14:28;12.40;99.90
2062;DHT22;11070;51.336;12.340;2022-12-29T14:17:17;12.30;99.90
2062;DHT22;11070;51.336;12.340;2022-12-29T14:19:45;12.30;99.90
2062;DHT22;11070;51.336;12.340;2022-12-29T14:22:12;12.20;99.90
2062;DHT22;11070;51.336;12.340;2022-12-29T14:24:45;12.10;99.90
2062;DHT22;11070;51.336;12.340;2022-12-29T14:34:55;11.90;1.00
2062;DHT22;11070;51.336;12.340;2022-12-29T14:40:03;11.90;1.00
2062;DHT22;11070;51.336;12.340;2022-12-29T14:42:31;11.80;1.00
2062;DHT22;11070;51.336;12.340;2022-12-29T14:45:02;11.80;1.00
2062;DHT22;11070;51.336;12.340;2022-12-29T14:47:34;11.80;1.00
2062;DHT22;11070;51.336;12.340;2022-12-29T14:52:57;11.80;1.00
2062;DHT22;11070;51.336;12.340;2022-12-29T14:55:56;11.80;1.00
2062;DHT22;11070;51.336;12.340;2022-12-29T14:58:38;11.90;99.90
2062;DHT22;11070;51.336;12.340;2022-12-29T15:04:30;11.80;1.00
2062;DHT22;11070;51.336;12.340;2022-12-29T15:06:59;11.70;1.00
2062;DHT22;11070;51.336;12.340;2022-12-29T15:09:34;11.70;1.00
2062;DHT22;11070;51.336;12.340;2022-12-29T15:15:00;11.60;1.00
2062;DHT22;11070;51.336;12.340;2022-12-29T15:17:34;11.50;1.00
2062;DHT22;11070;51.336;12.340;2022-12-29T15:20:31;11.50;1.00
2062;DHT22;11070;51.336;12.340;2022-12-29T15:23:10;11.50;1.00
2062;DHT22;11070;51.336;12.340;2022-12-29T15:25:49;11.40;1.00
2062;DHT22;11070;51.336;12.340;2022-12-29T15:28:17;11.40;1.00
2062;DHT22;11070;51.336;12.340;2022-12-29T15:30:56;11.30;1.00
2062;DHT22;11070;51.336;12.340;2022-12-29T15:33:27;11.30;1.00
2062;DHT22;11070;51.336;12.340;2022-12-29T15:35:56;11.30;1.00
2062;DHT22;11070;51.336;12.340;2022-12-29T15:38:27;11.30;1.00
2062;DHT22;11070;51.336;12.340;2022-12-29T15:41:00;11.30;1.00
2062;DHT22;11070;51.336;12.340;2022-12-29T15:43:36;11.30;1.00
2062;DHT22;11070;51.336;12.340;2022-12-29T15:46:05;11.30;1.00
2062;DHT22;11070;51.336;12.340;2022-12-29T15:48:37;11.30;1.00
2062;DHT22;11070;51.336;12.340;2022-12-29T15:51:31;11.30;1.00
2062;DHT22;11070;51.336;12.340;2022-12-29T15:54:02;11.20;1.00
2062;DHT22;11070;51.336;12.340;2022-12-29T15:56:33;11.10;1.00
2062;DHT22;11070;51.336;12.340;2022-12-29T15:58:59;11.10;1.00
2062;DHT22;11070;51.336;12.340;2022-12-29T16:01:36;11.10;1.00
2062;DHT22;11070;51.336;12.340;2022-12-29T16:04:09;10.90;62.10
2062;DHT22;11070;51.336;12.340;2022-12-29T16:06:44;10.80;99.90
2062;DHT22;11070;51.336;12.340;2022-12-29T16:09:32;10.80;99.90
2062;DHT22;11070;51.336;12.340;2022-12-29T16:12:03;10.70;99.90
2062;DHT22;11070;51.336;12.340;2022-12-29T16:14:38;10.70;99.90
2062;DHT22;11070;51.336;12.340;2022-12-29T16:17:09;10.60;99.90
2062;DHT22;11070;51.336;12.340;2022-12-29T16:19:39;10.50;1.00
2062;DHT22;11070;51.336;12.340;2022-12-29T16:22:16;10.50;1.00
2062;DHT22;11070;51.336;12.340;2022-12-29T16:24:54;10.40;1.00
2062;DHT22;11070;51.336;12.340;2022-12-29T16:27:42;10.30;1.00
2062;DHT22;11070;51.336;12.340;2022-12-29T16:30:34;10.30;99.90
2062;DHT22;11070;51.336;12.340;2022-12-29T16:33:52;10.20;99.90
2062;DHT22;11070;51.336;12.340;2022-12-29T16:36:30;10.20;1.00
2062;DHT22;11070;51.336;12.340;2022-12-29T17:00:33;9.60;99.90
2062;DHT22;11070;51.336;12.340;2022-12-29T17:06:56;9.40;99.90
2062;DHT22;11070;51.336;12.340;2022-12-29T17:09:37;9.20;1.00
2062;DHT22;11070;51.336;12.340;2022-12-29T17:12:45;9.20;1.00
2062;DHT22;11070;51.336;12.340;2022-12-29T17:15:27;9.10;1.00
2062;DHT22;11070;51.336;12.340;2022-12-29T17:30:14;9.00;99.90
2062;DHT22;11070;51.336;12.340;2022-12-29T17:33:08;9.00;99.90
2062;DHT22;11070;51.336;12.340;2022-12-29T17:42:21;8.80;99.90
2062;DHT22;11070;51.336;12.340;2022-12-29T17:48:30;8.80;99.90
2062;DHT22;11070;51.336;12.340;2022-12-29T17:53:47;8.70;99.90
2062;DHT22;11070;51.336;12.340;2022-12-29T17:56:36;8.70;99.90
2062;DHT22;11070;51.336;12.340;2022-12-29T17:59:02;8.70;52.40
2062;DHT22;11070;51.336;12.340;2022-12-29T18:01:32;8.70;1.00
2062;DHT22;11070;51.336;12.340;2022-12-29T18:04:00;8.70;1.00
2062;DHT22;11070;51.336;12.340;2022-12-29T18:06:45;8.70;1.00
2062;DHT22;11070;51.336;12.340;2022-12-29T18:09:39;8.80;1.00
2062;DHT22;11070;51.336;12.340;2022-12-29T18:12:38;8.80;1.00
2062;DHT22;11070;51.336;12.340;2022-12-29T18:15:26;8.90;1.00
2062;DHT22;11070;51.336;12.340;2022-12-29T18:23:58;8.90;1.00
2062;DHT22;11070;51.336;12.340;2022-12-29T18:29:04;8.80;78.50
2062;DHT22;11070;51.336;12.340;2022-12-29T18:31:37;8.80;99.90
2062;DHT22;11070;51.336;12.340;2022-12-29T18:34:41;8.80;99.90
2062;DHT22;11070;51.336;12.340;2022-12-29T18:37:09;8.80;1.00
2062;DHT22;11070;51.336;12.340;2022-12-29T18:39:36;8.80;1.00
2062;DHT22;11070;51.336;12.340;2022-12-29T18:42:05;8.70;1.00
2062;DHT22;11070;51.336;12.340;2022-12-29T18:47:33;8.60;87.50
2062;DHT22;11070;51.336;12.340;2022-12-29T18:52:48;8.60;99.90
2062;DHT22;11070;51.336;12.340;2022-12-29T19:00:57;8.60;1.00
2062;DHT22;11070;51.336;12.340;2022-12-29T19:11:53;8.60;1.00
2062;DHT22;11070;51.336;12.340;2022-12-29T19:14:43;8.50;1.00
2062;DHT22;11070;51.336;12.340;2022-12-29T19:17:25;8.60;1.00
2062;DHT22;11070;51.336;12.340;2022-12-29T19:19:54;8.60;1.00
2062;DHT22;11070;51.336;12.340;2022-12-29T19:28:24;8.50;1.00
2062;DHT22;11070;51.336;12.340;2022-12-29T20:29:25;8.10;99.90
2062;DHT22;11070;51.336;12.340;2022-12-29T20:34:32;8.20;99.90
2062;DHT22;11070;51.336;12.340;2022-12-29T20:39:40;8.20;99.90
2062;DHT22;11070;51.336;12.340;2022-12-29T20:50:49;8.10;1.00
2062;DHT22;11070;51.336;12.340;2022-12-29T20:53:17;8.00;1.00
2062;DHT22;11070;51.336;12.340;2022-12-29T20:55:48;8.00;1.00
2062;DHT22;11070;51.336;12.340;2022-12-29T20:58:15;7.90;1.00
2062;DHT22;11070;51.336;12.340;2022-12-29T21:00:41;7.90;1.00
2062;DHT22;11070;51.336;12.340;2022-12-29T21:03:39;7.90;1.00
2062;DHT22;11070;51.336;12.340;2022-12-29T21:06:34;7.90;1.00
2062;DHT22;11070;51.336;12.340;2022-12-29T21:09:04;7.90;1.00